Latest Coastal Weather Observations for Geraldton Airport

IDW60701

Issued at 3:55 pm WST Monday 1 September 2014 (issued every 10 minutes, with the page automatically refreshed every 10 minutes)

About coastal observations | Map of coastal stations | Coastal observations for WA | Marine services | Other Formats
Station Details ID: 008315 Name: GERALDTON AIRPORT Lat: -28.80 Lon: 114.70 Height: 29.7 m
Data from the previous 72 hours. | See also: Recent months at Geraldton Airport
Date/Time
WST
Temp

°C
Wind Pressure Rain
since 9am
mm
Weather Cloud Vis
km
Sea
Height
m
Swell
Dir
 
Speed
knots
Gust
knots
hPa Trend Height
m
Period
s
Dir
01/03:30pm 21.0 S 11 14 1016.0 - 0.0 Showers Partly cloudy 10 - - - -
01/03:00pm 22.9 S 4 6 1016.3 F 0.0 Fine Mostly cloudy 40 - - - -
01/02:30pm 22.8 SE 3 6 1016.4 - 0.0 - Partly cloudy 10 - - - -
01/02:00pm 23.0 NE 4 8 1016.7 - 0.0 - - 10 - - - -
01/01:30pm 23.0 ENE 7 9 1017.1 - 0.0 - - 10 - - - -
01/01:00pm 22.7 ENE 7 10 1017.6 - 0.0 - - 10 - - - -
01/12:30pm 22.4 E 9 13 1017.7 - 0.0 - - 10 - - - -
01/12:00pm 21.0 E 8 11 1018.8 F 0.0 Fine Cloudy 40 - - - -
01/11:30am 20.4 ENE 8 12 1019.0 - 0.0 - - 10 - - - -
01/11:00am 19.4 E 12 16 1019.1 - 0.0 - - 10 - - - -
01/10:30am 18.8 E 13 17 1019.5 - 0.0 - - 10 - - - -
01/10:00am 17.4 ENE 11 14 1019.9 - 0.0 - - 10 - - - -
01/09:30am 16.5 ENE 10 15 1020.3 - 0.0 - - 10 - - - -
01/09:00am 15.1 E 11 15 1020.1 F 0.0 Fine Mostly cloudy 40 - - - -
01/08:30am 14.2 E 7 13 1019.9 - 0.0 - - 10 - - - -
01/08:00am 13.2 S 6 8 1020.0 - 0.0 - - 10 - - - -
01/07:30am 12.1 SE 6 7 1020.0 - 0.0 - - 10 - - - -
01/07:00am 11.5 ESE 5 5 1020.2 - 0.0 - - 10 - - - -
01/06:30am 11.5 E 5 7 1020.0 - 0.0 - - 10 - - - -
01/06:00am 11.6 E 7 8 1019.9 F 0.0 Fine Mostly cloudy 40 - - - -
01/05:30am 11.8 E 6 8 1019.6 - 0.0 - - 10 - - - -
01/05:00am 11.2 E 5 7 1019.0 - 0.0 - - 10 - - - -
01/04:30am 11.3 ESE 5 7 1019.2 - 0.0 - - 10 - - - -
01/04:00am 10.6 ENE 6 6 1018.9 - 0.0 - - 10 - - - -
01/03:30am 10.5 SE 5 6 1019.7 - 0.0 - - 10 - - - -
01/03:00am 11.0 SSE 5 5 1019.6 - 0.0 - - 10 - - - -
01/02:30am 10.9 E 3 4 1019.4 - 0.0 - - 10 - - - -
01/02:00am 11.3 SSE 4 5 1019.5 - 0.0 - - 10 - - - -
01/01:30am 11.1 SE 5 5 1019.2 - 0.0 - - 10 - - - -
01/01:00am 11.7 SSE 5 6 1019.8 - 0.0 - - 10 - - - -
01/12:30am 11.7 ESE 2 5 1019.7 - 0.0 - - 10 - - - -
01/12:00am 11.9 SE 5 6 1019.6 - 0.0 - - 10 - - - -
 
Date/Time
WST
Temp

°C
Wind Pressure Rain
since 9am
mm
Weather Cloud Vis
km
Sea
Height
m
Swell
Dir
 
Speed
knots
Gust
knots
hPa Trend Height
m
Period
s
Dir
31/11:30pm 12.1 SSE 5 5 1019.9 - 0.0 - - 10 - - - -
31/11:00pm 12.4 SSE 6 7 1019.9 - 0.0 - - 10 - - - -
31/10:30pm 12.8 SE 5 6 1020.0 - 0.0 - - 10 - - - -
31/10:00pm 12.8 SE 5 6 1020.3 - 0.0 - - 10 - - - -
31/09:30pm 12.8 SSE 6 6 1020.6 - 0.0 - - 10 - - - -
31/09:00pm 13.1 SE 5 5 1020.6 S 0.0 Fine Mostly cloudy 25 - - - -
31/08:30pm 13.4 SE 5 7 1019.8 - 0.0 - - 10 - - - -
31/08:00pm 13.9 SE 4 5 1019.9 - 0.0 - - 10 - - - -
31/07:30pm 13.9 ESE 5 6 1019.5 - 0.0 - Mostly clear 10 - - - -
31/07:00pm 14.6 SSE 6 7 1019.5 - 0.0 - Mostly clear 10 - - - -
31/06:30pm 15.9 SSE 5 6 1019.4 - 0.0 - Mostly clear 10 - - - -
31/06:00pm 17.1 S 8 11 1019.6 R 0.0 Fine Mostly cloudy 40 - - - -
31/05:30pm 18.0 S 9 12 1019.3 - 0.0 - Mostly clear 10 - - - -
31/05:00pm 18.5 S 10 14 1019.0 - 0.0 - Mostly clear 10 - - - -
31/04:30pm 19.3 S 11 14 1018.9 - 0.0 - Mostly clear 10 - - - -
31/04:00pm 20.3 S 10 13 1018.4 - 0.0 - Mostly clear 10 - - - -
31/03:30pm 20.2 S 10 14 1018.3 - 0.0 - Mostly clear 10 - - - -
31/03:00pm 20.0 S 11 17 1018.5 R 0.0 Fine Mostly cloudy 40 - - - -
31/02:30pm 20.9 S 9 14 1018.2 - 0.0 - Mostly clear 10 - - - -
31/02:00pm 20.9 SSW 10 15 1018.2 - 0.0 - Mostly clear 10 - - - -
31/01:30pm 21.4 S 7 15 1018.2 - 0.0 - Partly cloudy 10 - - - -
31/01:00pm 22.0 SSE 8 11 1018.4 - 0.0 - Partly cloudy 10 - - - -
31/12:30pm 19.8 S 7 15 1018.8 - 0.0 - Partly cloudy 10 - - - -
31/12:00pm 19.3 SSE 7 9 1019.2 F 0.0 Fine Mostly cloudy 40 - - - -
31/11:30am 18.9 S 11 14 1019.4 - 0.0 - Partly cloudy 10 - - - -
31/11:00am 19.7 E 6 10 1019.4 - 0.0 - Mostly clear 10 - - - -
31/10:30am 19.6 SE 10 12 1019.6 - 0.0 - Mostly clear 10 - - - -
31/10:00am 18.6 ESE 8 12 1019.9 - 0.0 - Mostly clear 10 - - - -
31/09:30am 17.9 ESE 7 9 1020.4 - 0.0 - Mostly clear 10 - - - -
31/09:00am 17.0 E 7 11 1020.0 R 0.8 Fine Mostly cloudy 30 - - - -
31/08:30am 15.7 ENE 5 8 1019.7 - 0.8 - Mostly clear 10 - - - -
31/08:00am 14.8 NE 4 5 1019.5 - 0.8 - Mostly clear 10 - - - -
31/07:30am 13.7 NE 5 6 1019.3 - 0.8 - Mostly clear 10 - - - -
31/07:00am 12.9 E 3 4 1018.9 - 0.8 - Mostly clear 10 - - - -
31/06:45am 12.2 NNE 5 6 1018.6 - 0.8 - Mostly clear 3 - - - -
31/06:30am 12.2 NNE 6 7 1018.5 - 0.8 - Mostly clear 10 - - - -
31/06:00am 12.4 NNE 5 6 1018.3 R 0.8 Fine Partly cloudy 30 - - - -
31/05:30am 12.8 NE 5 6 1018.2 - 0.8 - Partly cloudy 10 - - - -
31/05:00am 12.5 ENE 6 7 1018.1 - 0.8 - Partly cloudy 10 - - - -
31/04:30am 12.8 NE 5 6 1018.0 - 0.8 - Partly cloudy 10 - - - -
31/04:00am 12.3 NNE 6 7 1017.8 - 0.8 - Partly cloudy 10 - - - -
31/03:30am 12.2 NNE 6 6 1017.9 - 0.8 - - 10 - - - -
31/03:00am 12.8 NNE 6 7 1017.9 - 0.8 - Cloudy 10 - - - -
31/02:30am 12.9 NNE 5 6 1017.8 - 0.8 - - 10 - - - -
31/02:00am 12.7 NNE 6 7 1017.9 - 0.8 - - 10 - - - -
31/01:30am 13.5 ESE 4 4 1018.0 - 0.8 - - 10 - - - -
31/01:00am 14.2 NE 3 5 1018.3 - 0.8 - Partly cloudy 10 - - - -
31/12:43am 13.8 NNE 5 6 1018.3 - 0.8 - Partly cloudy 10 - - - -
31/12:30am 13.5 NE 3 5 1018.3 - 0.8 - Partly cloudy 2 - - - -
31/12:00am 14.2 CALM 0 0 1018.3 - 0.8 - - 1 - - - -
 
Date/Time
WST
Temp

°C
Wind Pressure Rain
since 9am
mm
Weather Cloud Vis
km
Sea
Height
m
Swell
Dir
 
Speed
knots
Gust
knots
hPa Trend Height
m
Period
s
Dir
30/11:30pm 15.2 CALM 0 0 1018.2 - 0.8 - Partly cloudy 5 - - - -
30/11:12pm 15.4 CALM 0 0 1018.4 - 0.8 - - 8 - - - -
30/11:00pm 16.1 CALM 0 0 1018.4 - 0.8 - - 10 - - - -
30/10:30pm 17.1 CALM 0 0 1018.6 - 0.8 - Partly cloudy 10 - - - -
30/10:00pm 17.7 S 1 3 1019.0 - 0.8 - Partly cloudy 10 - - - -
30/09:30pm 17.7 S 5 5 1019.2 - 0.8 - Partly cloudy 10 - - - -
30/09:00pm 17.8 S 5 6 1019.2 R 0.8 Fine Mostly cloudy 25 - - - -
30/08:30pm 18.0 S 1 3 1018.9 - 0.8 - Mostly clear 10 - - - -
30/08:00pm 18.0 S 5 6 1018.7 - 0.8 - Mostly clear 10 - - - -
30/07:30pm 17.9 SSW 5 7 1018.4 - 0.8 - Mostly clear 10 - - - -
30/07:00pm 17.4 SSW 4 5 1017.9 - 0.8 - Partly cloudy 10 - - - -
30/06:30pm 17.8 SW 6 7 1017.7 - 0.8 - Mostly clear 10 - - - -
30/06:00pm 19.2 SW 8 10 1017.5 R 0.8 Fine Mostly cloudy 30 - - - -
30/05:30pm 19.6 WSW 7 9 1017.5 - 0.8 - Partly cloudy 10 - - - -
30/05:00pm 20.9 WSW 7 11 1017.3 - 0.8 - Partly cloudy 10 - - - -
30/04:30pm 20.5 WSW 6 10 1017.1 - 0.8 - Partly cloudy 10 - - - -
30/04:00pm 20.1 W 6 7 1016.9 - 0.8 - Partly cloudy 10 - - - -
30/03:30pm 20.6 WSW 9 12 1016.7 - 0.8 - Partly cloudy 10 - - - -
30/03:00pm 21.5 WSW 8 11 1016.5 R 0.8 Fine Mostly cloudy 30 - - - -
30/02:30pm 21.0 W 8 11 1016.4 - 0.8 - Partly cloudy 10 - - - -
30/02:00pm 20.9 W 8 11 1016.5 - 0.8 - Partly cloudy 10 - - - -
30/01:30pm 19.7 W 9 11 1016.6 - 0.8 - Partly cloudy 5 - - - -
30/01:00pm 19.6 WNW 10 14 1016.8 - 0.4 Showers Mostly clear 3 - - - -
30/12:36pm 20.3 W 10 14 1016.8 - 0.2 Showers Mostly clear 4 - - - -
30/12:30pm 20.2 W 10 13 1016.9 - 0.2 Showers Mostly clear 6 - - - -
30/12:00pm 19.8 W 11 15 1017.1 R 0.2 Recent precip. Mostly cloudy 15 - - - -
30/11:55am 19.3 W 12 15 1017.1 - 0.2 Showers Mostly clear 6 - - - -
30/11:34am 19.8 WSW 15 19 1017.1 - 0.0 Showers Mostly clear 2 - - - -
30/11:30am 20.3 WSW 15 19 1017.0 - 0.0 Showers Mostly clear 5 - - - -
30/11:00am 23.3 WNW 14 19 1016.9 - 0.0 - Mostly clear 10 - - - -
30/10:30am 21.6 WNW 11 17 1017.1 - 0.0 - Mostly clear 10 - - - -
30/10:00am 22.4 W 11 17 1017.0 - 0.0 - Mostly clear 10 - - - -
30/09:30am 21.4 W 10 13 1017.2 - 0.0 - Mostly clear 10 - - - -
30/09:00am 21.3 WNW 10 12 1017.0 R 0.6 Distant precip. Mostly cloudy 18 - - - -
30/08:30am 20.3 WNW 8 11 1016.9 - 0.6 - Mostly clear 10 - - - -
30/08:00am 19.2 W 7 9 1016.7 - 0.6 - Partly cloudy 10 - - - -
30/07:30am 19.1 WNW 6 9 1016.4 - 0.6 - Mostly clear 10 - - - -
30/07:00am 18.6 W 7 8 1016.1 - 0.6 - Mostly clear 10 - - - -
30/06:45am 18.8 W 8 10 1015.9 - 0.6 - Mostly clear 10 - - - -
30/06:26am 19.5 W 7 9 1015.8 - 0.4 Showers Mostly clear 7 - - - -
30/06:00am 19.4 W 11 14 1015.6 S 0.2 Fine Mostly cloudy 30 - - - -
30/05:30am 18.8 WNW 7 9 1015.4 - 0.2 - - 10 - - - -
30/05:00am 18.9 WNW 10 14 1015.3 - 0.2 - Partly cloudy 10 - - - -
30/04:30am 18.7 WNW 13 19 1015.3 - 0.2 - Partly cloudy 10 - - - -
30/04:21am 19.0 NW 16 21 1015.4 - 0.2 - Partly cloudy 10 - - - -
30/04:03am 19.1 W 14 20 1015.4 - 0.2 - Partly cloudy 7 - - - -
30/04:00am 19.4 W 14 20 1015.4 - 0.0 - Partly cloudy 10 - - - -
30/03:30am 19.4 NW 11 15 1015.6 - 0.0 - Partly cloudy 10 - - - -
30/03:00am 18.7 N 9 13 1015.5 - 0.0 - Cloudy 10 - - - -
30/02:30am 18.3 NNW 9 11 1015.7 - 0.0 - Partly cloudy 10 - - - -
30/02:00am 18.1 NNW 9 12 1015.8 - 0.0 - Partly cloudy 10 - - - -
30/01:30am 18.3 NNW 9 13 1015.9 - 0.0 - Partly cloudy 10 - - - -
30/01:00am 17.8 N 7 10 1016.0 - 0.0 - Partly cloudy 10 - - - -
30/12:30am 17.6 N 7 9 1016.1 - 0.0 - Partly cloudy 10 - - - -
30/12:00am 17.5 N 8 9 1016.5 - 0.0 - - 10 - - - -
 
Date/Time
WST
Temp

°C
Wind Pressure Rain
since 9am
mm
Weather Cloud Vis
km
Sea
Height
m
Swell
Dir
 
Speed
knots
Gust
knots
hPa Trend Height
m
Period
s
Dir
29/11:30pm 17.6 N 8 10 1016.4 - 0.0 - Partly cloudy 10 - - - -
29/11:00pm 18.0 N 8 10 1016.9 - 0.0 - Partly cloudy 10 - - - -
29/10:30pm 18.4 NNW 9 12 1017.2 - 0.0 - Partly cloudy 10 - - - -
29/10:00pm 18.1 N 7 8 1017.2 - 0.0 - Partly cloudy 10 - - - -
29/09:36pm 18.6 N 7 9 1017.4 - 0.0 - Partly cloudy 10 - - - -
29/09:30pm 18.7 N 7 9 1017.4 - 0.0 - Partly cloudy 10 - - - -
29/09:24pm 18.6 N 7 9 1017.4 - 0.0 - Partly cloudy 10 - - - -
29/09:00pm 19.4 N 9 11 1017.2 R 0.0 Fine Partly cloudy 25 - - - -
29/08:30pm 19.9 NNW 9 13 1017.1 - 0.0 - Partly cloudy 10 - - - -
29/08:00pm 19.9 NNW 10 14 1016.9 - 0.0 - Partly cloudy 10 - - - -
29/07:30pm 19.8 NNW 9 13 1016.7 - 0.0 - Mostly clear 10 - - - -
29/07:00pm 19.8 NNW 10 13 1016.5 - 0.0 - Partly cloudy 10 - - - -
29/06:30pm 19.7 NNW 9 12 1016.1 - 0.0 - Mostly clear 10 - - - -
29/06:00pm 20.1 NW 10 14 1016.0 F 0.0 Fine Partly cloudy 30 - - - -
29/05:30pm 21.0 NW 13 17 1015.9 - 0.0 - Mostly clear 10 - - - -
29/05:00pm 21.6 NW 12 17 1016.0 - 0.0 - Partly cloudy 10 - - - -
29/04:30pm 21.7 NW 14 20 1016.0 - 0.0 - Partly cloudy 10 - - - -
29/04:00pm 21.9 NW 15 20 1015.9 - 0.0 - Partly cloudy 10 - - - -

Other Formats:

Comma delimited format used in spreadsheet applications
http://www.bom.gov.au/fwo/IDW60701/IDW60701.94403.axf

JavaScript Object Notation format (JSON) in row-major order
http://www.bom.gov.au/fwo/IDW60701/IDW60701.94403.json